Capitol Logistics 361


KSEA
Seattle-Tacoma International Airport
Seattle, Washington, US
KMIA
Miami International Airport
Miami, Florida, US

Route Details

Aircraft Information
Primary: Boeing 767-300BDSF
Backup: Not Available
Route Data
Distance: 2411nm
Sched. Duration: 5h 40m
Avg. Duration: 5h 24m (-16m)
Times Flown: 5
Recm'd Route: SEA NORMY J90 MWH DLN DDY BFF SGF MEM MGM SZW PLYER JUULI SSCOT5
Planned Altitude: 35,000ft
Origin Wx: KSEA 282053Z 22009KT 10SM BKN005 BKN013 07/04 A2997 RMK AO2 SLP158 T00670044 58029
Dest. Wx: KMIA 282053Z 33010G16KT 290V360 10SM CLR 20/04 A3018 RMK AO2 SLP221 T02000039 56014
Notes:

Financial History
Total Freight: 529,275lbs
Average Load: 105,855lbs/flt
Fuel Used: 300,850lbs
Avg. Fuel Used: 60,170lbs/flt
Fuel Expense: $336,952
Avg. Fuel Expense: $67,390
Avg. Fuel Cost: $1.12/lbs
Total Gross Income: $889,372
Pilot Pay: $905
Total Expenses: $96,312
Total Revenue: $450,162
Average Revenue: $177,874.46